sensor_id;sensor_type;location;lat;lon;timestamp;temperature;humidity
22666;DHT22;11499;49.486;11.104;2022-11-20T00:00:29;1.10;99.90
22666;DHT22;11499;49.486;11.104;2022-11-20T00:02:55;1.10;99.90
22666;DHT22;11499;49.486;11.104;2022-11-20T00:05:20;1.10;99.90
22666;DHT22;11499;49.486;11.104;2022-11-20T00:07:46;1.10;99.90
22666;DHT22;11499;49.486;11.104;2022-11-20T00:10:12;1.10;99.90
22666;DHT22;11499;49.486;11.104;2022-11-20T00:12:37;1.20;99.90
22666;DHT22;11499;49.486;11.104;2022-11-20T00:18:04;1.20;99.90
22666;DHT22;11499;49.486;11.104;2022-11-20T00:20:30;1.20;99.90
22666;DHT22;11499;49.486;11.104;2022-11-20T00:22:55;1.20;99.90
22666;DHT22;11499;49.486;11.104;2022-11-20T00:25:21;1.30;99.90
22666;DHT22;11499;49.486;11.104;2022-11-20T00:27:46;1.30;99.90
22666;DHT22;11499;49.486;11.104;2022-11-20T00:30:12;1.30;99.90
22666;DHT22;11499;49.486;11.104;2022-11-20T00:32:37;1.30;99.90
22666;DHT22;11499;49.486;11.104;2022-11-20T00:35:03;1.30;99.90
22666;DHT22;11499;49.486;11.104;2022-11-20T00:37:28;1.20;99.90
22666;DHT22;11499;49.486;11.104;2022-11-20T00:39:54;1.20;99.90
22666;DHT22;11499;49.486;11.104;2022-11-20T00:45:19;1.30;99.90
22666;DHT22;11499;49.486;11.104;2022-11-20T00:47:45;1.40;99.90
22666;DHT22;11499;49.486;11.104;2022-11-20T00:50:11;1.40;99.90
22666;DHT22;11499;49.486;11.104;2022-11-20T00:52:36;1.50;99.90
22666;DHT22;11499;49.486;11.104;2022-11-20T00:55:02;1.50;99.90
22666;DHT22;11499;49.486;11.104;2022-11-20T00:57:27;1.50;99.90
22666;DHT22;11499;49.486;11.104;2022-11-20T00:59:53;1.60;99.90
22666;DHT22;11499;49.486;11.104;2022-11-20T01:02:18;1.50;99.90
22666;DHT22;11499;49.486;11.104;2022-11-20T01:04:44;1.40;99.90
22666;DHT22;11499;49.486;11.104;2022-11-20T01:07:09;1.40;99.90
22666;DHT22;11499;49.486;11.104;2022-11-20T01:12:23;1.40;99.90
22666;DHT22;11499;49.486;11.104;2022-11-20T01:14:49;1.40;99.90
22666;DHT22;11499;49.486;11.104;2022-11-20T01:17:14;1.50;99.90
22666;DHT22;11499;49.486;11.104;2022-11-20T01:19:40;1.50;99.90
22666;DHT22;11499;49.486;11.104;2022-11-20T01:22:05;1.50;99.90
22666;DHT22;11499;49.486;11.104;2022-11-20T01:24:31;1.60;99.90
22666;DHT22;11499;49.486;11.104;2022-11-20T01:26:56;1.60;99.90
22666;DHT22;11499;49.486;11.104;2022-11-20T01:29:24;1.70;99.90
22666;DHT22;11499;49.486;11.104;2022-11-20T01:31:50;1.70;99.90
22666;DHT22;11499;49.486;11.104;2022-11-20T01:34:18;1.70;99.90
22666;DHT22;11499;49.486;11.104;2022-11-20T01:39:46;1.70;99.90
22666;DHT22;11499;49.486;11.104;2022-11-20T01:42:11;1.70;99.90
22666;DHT22;11499;49.486;11.104;2022-11-20T01:44:58;1.80;99.90
22666;DHT22;11499;49.486;11.104;2022-11-20T01:47:31;1.80;99.90
22666;DHT22;11499;49.486;11.104;2022-11-20T01:50:18;1.80;99.90
22666;DHT22;11499;49.486;11.104;2022-11-20T01:53:00;1.90;99.90
22666;DHT22;11499;49.486;11.104;2022-11-20T01:55:33;1.90;99.90
22666;DHT22;11499;49.486;11.104;2022-11-20T01:58:00;1.90;99.90
22666;DHT22;11499;49.486;11.104;2022-11-20T02:00:26;1.80;99.90
22666;DHT22;11499;49.486;11.104;2022-11-20T02:02:55;1.90;99.90
22666;DHT22;11499;49.486;11.104;2022-11-20T02:07:43;1.90;99.90
22666;DHT22;11499;49.486;11.104;2022-11-20T02:10:09;1.90;99.90
22666;DHT22;11499;49.486;11.104;2022-11-20T02:12:35;1.90;99.90
22666;DHT22;11499;49.486;11.104;2022-11-20T02:15:19;1.90;99.90
22666;DHT22;11499;49.486;11.104;2022-11-20T02:17:44;1.90;99.90
22666;DHT22;11499;49.486;11.104;2022-11-20T02:20:10;2.00;99.90
22666;DHT22;11499;49.486;11.104;2022-11-20T02:22:45;2.00;99.90
22666;DHT22;11499;49.486;11.104;2022-11-20T02:25:14;2.00;99.90
22666;DHT22;11499;49.486;11.104;2022-11-20T02:27:40;2.00;99.90
22666;DHT22;11499;49.486;11.104;2022-11-20T02:30:06;2.00;99.90
22666;DHT22;11499;49.486;11.104;2022-11-20T02:34:20;1.90;99.90
22666;DHT22;11499;49.486;11.104;2022-11-20T02:36:46;2.20;99.90
22666;DHT22;11499;49.486;11.104;2022-11-20T02:39:15;2.10;99.90
22666;DHT22;11499;49.486;11.104;2022-11-20T02:41:42;2.10;99.90
22666;DHT22;11499;49.486;11.104;2022-11-20T02:44:07;2.00;99.90
22666;DHT22;11499;49.486;11.104;2022-11-20T02:46:33;1.80;99.90
22666;DHT22;11499;49.486;11.104;2022-11-20T02:49:01;1.70;99.90
22666;DHT22;11499;49.486;11.104;2022-11-20T02:51:26;1.40;99.90
22666;DHT22;11499;49.486;11.104;2022-11-20T02:53:52;1.30;99.90
22666;DHT22;11499;49.486;11.104;2022-11-20T02:56:17;1.30;99.90
22666;DHT22;11499;49.486;11.104;2022-11-20T03:01:22;1.30;99.90
22666;DHT22;11499;49.486;11.104;2022-11-20T03:03:47;1.30;99.90
22666;DHT22;11499;49.486;11.104;2022-11-20T03:06:15;1.30;99.90
22666;DHT22;11499;49.486;11.104;2022-11-20T03:08:41;1.40;99.90
22666;DHT22;11499;49.486;11.104;2022-11-20T03:11:07;1.40;99.90
22666;DHT22;11499;49.486;11.104;2022-11-20T03:13:34;1.20;99.90
22666;DHT22;11499;49.486;11.104;2022-11-20T03:16:06;1.20;99.90
22666;DHT22;11499;49.486;11.104;2022-11-20T03:18:31;1.20;99.90
22666;DHT22;11499;49.486;11.104;2022-11-20T03:20:58;1.30;99.90
22666;DHT22;11499;49.486;11.104;2022-11-20T03:23:24;1.20;99.90
22666;DHT22;11499;49.486;11.104;2022-11-20T03:28:38;1.20;99.90
22666;DHT22;11499;49.486;11.104;2022-11-20T03:31:12;1.20;99.90
22666;DHT22;11499;49.486;11.104;2022-11-20T03:33:38;1.10;99.90
22666;DHT22;11499;49.486;11.104;2022-11-20T03:36:06;1.10;99.90
22666;DHT22;11499;49.486;11.104;2022-11-20T03:38:32;1.10;99.90
22666;DHT22;11499;49.486;11.104;2022-11-20T03:40:59;1.10;99.90
22666;DHT22;11499;49.486;11.104;2022-11-20T03:43:26;1.10;99.90
22666;DHT22;11499;49.486;11.104;2022-11-20T03:45:51;1.10;99.90
22666;DHT22;11499;49.486;11.104;2022-11-20T03:48:17;1.20;99.90
22666;DHT22;11499;49.486;11.104;2022-11-20T03:50:42;1.20;99.90
22666;DHT22;11499;49.486;11.104;2022-11-20T03:55:57;1.30;99.90
22666;DHT22;11499;49.486;11.104;2022-11-20T03:58:22;1.30;99.90
22666;DHT22;11499;49.486;11.104;2022-11-20T04:00:48;1.30;99.90
22666;DHT22;11499;49.486;11.104;2022-11-20T04:03:13;1.30;99.90
22666;DHT22;11499;49.486;11.104;2022-11-20T04:05:39;1.30;99.90
22666;DHT22;11499;49.486;11.104;2022-11-20T04:08:04;1.30;99.90
22666;DHT22;11499;49.486;11.104;2022-11-20T04:10:30;1.30;99.90
22666;DHT22;11499;49.486;11.104;2022-11-20T04:12:56;1.30;99.90
22666;DHT22;11499;49.486;11.104;2022-11-20T04:15:21;1.30;99.90
22666;DHT22;11499;49.486;11.104;2022-11-20T04:17:47;1.30;99.90
22666;DHT22;11499;49.486;11.104;2022-11-20T04:21:57;1.40;99.90
22666;DHT22;11499;49.486;11.104;2022-11-20T04:24:22;1.40;99.90
22666;DHT22;11499;49.486;11.104;2022-11-20T04:26:48;1.40;99.90
22666;DHT22;11499;49.486;11.104;2022-11-20T04:29:13;1.50;99.90
22666;DHT22;11499;49.486;11.104;2022-11-20T04:31:39;1.50;99.90
22666;DHT22;11499;49.486;11.104;2022-11-20T04:34:06;1.50;99.90
22666;DHT22;11499;49.486;11.104;2022-11-20T04:36:32;1.50;99.90
22666;DHT22;11499;49.486;11.104;2022-11-20T04:38:59;1.60;99.90
22666;DHT22;11499;49.486;11.104;2022-11-20T04:41:29;1.70;99.90
22666;DHT22;11499;49.486;11.104;2022-11-20T04:43:57;1.60;99.90
22666;DHT22;11499;49.486;11.104;2022-11-20T04:49:14;1.70;99.90
22666;DHT22;11499;49.486;11.104;2022-11-20T04:51:39;1.70;99.90
22666;DHT22;11499;49.486;11.104;2022-11-20T04:54:05;1.70;99.90
22666;DHT22;11499;49.486;11.104;2022-11-20T04:56:30;1.70;99.90
22666;DHT22;11499;49.486;11.104;2022-11-20T04:59:00;1.70;99.90
22666;DHT22;11499;49.486;11.104;2022-11-20T05:01:26;1.80;99.90
22666;DHT22;11499;49.486;11.104;2022-11-20T05:03:52;1.80;99.90
22666;DHT22;11499;49.486;11.104;2022-11-20T05:06:21;1.80;99.90
22666;DHT22;11499;49.486;11.104;2022-11-20T05:08:47;1.80;99.90
22666;DHT22;11499;49.486;11.104;2022-11-20T05:11:15;1.70;99.90
22666;DHT22;11499;49.486;11.104;2022-11-20T05:16:23;1.80;99.90
22666;DHT22;11499;49.486;11.104;2022-11-20T05:18:49;1.80;99.90
22666;DHT22;11499;49.486;11.104;2022-11-20T05:21:16;1.80;99.90
22666;DHT22;11499;49.486;11.104;2022-11-20T05:23:42;1.80;99.90
22666;DHT22;11499;49.486;11.104;2022-11-20T05:26:12;1.80;99.90
22666;DHT22;11499;49.486;11.104;2022-11-20T05:28:38;1.80;99.90
22666;DHT22;11499;49.486;11.104;2022-11-20T05:31:11;1.80;99.90
22666;DHT22;11499;49.486;11.104;2022-11-20T05:33:40;1.90;99.90
22666;DHT22;11499;49.486;11.104;2022-11-20T05:36:06;1.90;99.90
22666;DHT22;11499;49.486;11.104;2022-11-20T05:38:32;1.90;99.90
22666;DHT22;11499;49.486;11.104;2022-11-20T05:43:38;2.00;99.90
22666;DHT22;11499;49.486;11.104;2022-11-20T05:46:05;2.10;99.90
22666;DHT22;11499;49.486;11.104;2022-11-20T05:48:32;2.10;99.90
22666;DHT22;11499;49.486;11.104;2022-11-20T05:50:59;2.10;99.90
22666;DHT22;11499;49.486;11.104;2022-11-20T05:53:25;2.20;99.90
22666;DHT22;11499;49.486;11.104;2022-11-20T05:56:05;2.10;99.90
22666;DHT22;11499;49.486;11.104;2022-11-20T05:58:32;2.10;99.90
22666;DHT22;11499;49.486;11.104;2022-11-20T06:01:10;2.10;99.90
22666;DHT22;11499;49.486;11.104;2022-11-20T06:03:37;2.10;99.90
22666;DHT22;11499;49.486;11.104;2022-11-20T06:06:04;2.10;99.90
22666;DHT22;11499;49.486;11.104;2022-11-20T06:10:43;2.20;99.90
22666;DHT22;11499;49.486;11.104;2022-11-20T06:13:09;2.20;99.90
22666;DHT22;11499;49.486;11.104;2022-11-20T06:15:34;2.20;99.90
22666;DHT22;11499;49.486;11.104;2022-11-20T06:18:00;2.20;99.90
22666;DHT22;11499;49.486;11.104;2022-11-20T06:20:25;2.20;99.90
22666;DHT22;11499;49.486;11.104;2022-11-20T06:22:51;2.20;99.90
22666;DHT22;11499;49.486;11.104;2022-11-20T06:25:16;2.20;99.90
22666;DHT22;11499;49.486;11.104;2022-11-20T06:27:42;2.20;99.90
22666;DHT22;11499;49.486;11.104;2022-11-20T06:30:08;2.20;99.90
22666;DHT22;11499;49.486;11.104;2022-11-20T06:32:33;2.20;99.90
22666;DHT22;11499;49.486;11.104;2022-11-20T06:37:28;2.10;99.90
22666;DHT22;11499;49.486;11.104;2022-11-20T06:39:53;2.20;99.90
22666;DHT22;11499;49.486;11.104;2022-11-20T06:42:19;2.20;99.90
22666;DHT22;11499;49.486;11.104;2022-11-20T06:44:44;2.20;99.90
22666;DHT22;11499;49.486;11.104;2022-11-20T06:47:10;2.10;99.90
22666;DHT22;11499;49.486;11.104;2022-11-20T06:49:35;2.10;99.90
22666;DHT22;11499;49.486;11.104;2022-11-20T06:52:02;2.10;99.90
22666;DHT22;11499;49.486;11.104;2022-11-20T06:54:27;2.00;99.90
22666;DHT22;11499;49.486;11.104;2022-11-20T06:56:53;1.90;99.90
22666;DHT22;11499;49.486;11.104;2022-11-20T06:59:18;2.00;99.90
22666;DHT22;11499;49.486;11.104;2022-11-20T07:04:43;2.10;99.90
22666;DHT22;11499;49.486;11.104;2022-11-20T07:07:08;2.20;99.90
22666;DHT22;11499;49.486;11.104;2022-11-20T07:09:34;2.30;99.90
22666;DHT22;11499;49.486;11.104;2022-11-20T07:11:59;2.40;99.90
22666;DHT22;11499;49.486;11.104;2022-11-20T07:14:25;2.40;99.90
22666;DHT22;11499;49.486;11.104;2022-11-20T07:16:51;2.30;99.90
22666;DHT22;11499;49.486;11.104;2022-11-20T07:19:16;2.40;99.90
22666;DHT22;11499;49.486;11.104;2022-11-20T07:21:42;2.40;99.90
22666;DHT22;11499;49.486;11.104;2022-11-20T07:24:07;2.50;99.90
22666;DHT22;11499;49.486;11.104;2022-11-20T07:26:33;2.50;99.90
22666;DHT22;11499;49.486;11.104;2022-11-20T07:31:35;2.40;99.90
22666;DHT22;11499;49.486;11.104;2022-11-20T07:34:01;2.50;99.90
22666;DHT22;11499;49.486;11.104;2022-11-20T07:36:26;2.60;99.90
22666;DHT22;11499;49.486;11.104;2022-11-20T07:38:52;2.60;99.90
22666;DHT22;11499;49.486;11.104;2022-11-20T07:41:17;2.70;99.90
22666;DHT22;11499;49.486;11.104;2022-11-20T07:43:43;2.80;99.90
22666;DHT22;11499;49.486;11.104;2022-11-20T07:46:08;2.90;99.90
22666;DHT22;11499;49.486;11.104;2022-11-20T07:48:34;2.90;99.90
22666;DHT22;11499;49.486;11.104;2022-11-20T07:50:59;3.00;99.90
22666;DHT22;11499;49.486;11.104;2022-11-20T07:53:25;2.90;99.90
22666;DHT22;11499;49.486;11.104;2022-11-20T07:58:36;3.10;99.90
22666;DHT22;11499;49.486;11.104;2022-11-20T08:01:06;3.20;99.90
22666;DHT22;11499;49.486;11.104;2022-11-20T08:03:31;3.40;99.90
22666;DHT22;11499;49.486;11.104;2022-11-20T08:06:01;3.40;99.90
22666;DHT22;11499;49.486;11.104;2022-11-20T08:08:27;3.40;99.90
22666;DHT22;11499;49.486;11.104;2022-11-20T08:10:53;3.50;99.90
22666;DHT22;11499;49.486;11.104;2022-11-20T08:13:38;3.50;99.90
22666;DHT22;11499;49.486;11.104;2022-11-20T08:16:22;3.50;99.90
22666;DHT22;11499;49.486;11.104;2022-11-20T08:18:48;3.50;99.90
22666;DHT22;11499;49.486;11.104;2022-11-20T08:23:57;3.40;99.90
22666;DHT22;11499;49.486;11.104;2022-11-20T08:26:23;3.40;99.90
22666;DHT22;11499;49.486;11.104;2022-11-20T08:28:52;3.40;99.90
22666;DHT22;11499;49.486;11.104;2022-11-20T08:31:18;3.40;99.90
22666;DHT22;11499;49.486;11.104;2022-11-20T08:33:43;3.50;99.90
22666;DHT22;11499;49.486;11.104;2022-11-20T08:36:09;3.60;99.90
22666;DHT22;11499;49.486;11.104;2022-11-20T08:38:34;3.60;99.90
22666;DHT22;11499;49.486;11.104;2022-11-20T08:41:01;3.60;99.90
22666;DHT22;11499;49.486;11.104;2022-11-20T08:43:45;3.60;99.90
22666;DHT22;11499;49.486;11.104;2022-11-20T08:46:11;3.80;99.90
22666;DHT22;11499;49.486;11.104;2022-11-20T08:51:25;3.90;99.90
22666;DHT22;11499;49.486;11.104;2022-11-20T08:53:51;3.80;99.90
22666;DHT22;11499;49.486;11.104;2022-11-20T08:56:17;3.90;99.90
22666;DHT22;11499;49.486;11.104;2022-11-20T08:58:43;4.00;99.90
22666;DHT22;11499;49.486;11.104;2022-11-20T09:01:09;4.00;99.90
22666;DHT22;11499;49.486;11.104;2022-11-20T09:03:34;3.90;99.90
22666;DHT22;11499;49.486;11.104;2022-11-20T09:06:02;4.00;99.90
22666;DHT22;11499;49.486;11.104;2022-11-20T09:08:28;4.00;99.90
22666;DHT22;11499;49.486;11.104;2022-11-20T09:10:55;3.90;99.90
22666;DHT22;11499;49.486;11.104;2022-11-20T09:13:21;3.90;99.90
22666;DHT22;11499;49.486;11.104;2022-11-20T09:18:49;4.00;99.90
22666;DHT22;11499;49.486;11.104;2022-11-20T09:21:16;3.90;99.90
22666;DHT22;11499;49.486;11.104;2022-11-20T09:23:41;3.80;99.90
22666;DHT22;11499;49.486;11.104;2022-11-20T09:26:15;3.70;99.90
22666;DHT22;11499;49.486;11.104;2022-11-20T09:28:41;3.70;99.90
22666;DHT22;11499;49.486;11.104;2022-11-20T09:31:08;3.60;99.90
22666;DHT22;11499;49.486;11.104;2022-11-20T09:33:34;3.60;99.90
22666;DHT22;11499;49.486;11.104;2022-11-20T09:36:00;3.60;99.90
22666;DHT22;11499;49.486;11.104;2022-11-20T09:38:26;3.70;99.90
22666;DHT22;11499;49.486;11.104;2022-11-20T09:40:58;3.70;99.90
22666;DHT22;11499;49.486;11.104;2022-11-20T09:52:14;3.80;99.90
22666;DHT22;11499;49.486;11.104;2022-11-20T09:54:42;3.90;99.90
22666;DHT22;11499;49.486;11.104;2022-11-20T09:57:35;4.00;99.90
22666;DHT22;11499;49.486;11.104;2022-11-20T10:00:04;4.20;99.90
22666;DHT22;11499;49.486;11.104;2022-11-20T10:02:37;3.90;99.90
22666;DHT22;11499;49.486;11.104;2022-11-20T10:05:35;3.60;99.90
22666;DHT22;11499;49.486;11.104;2022-11-20T10:08:21;3.30;99.90
22666;DHT22;11499;49.486;11.104;2022-11-20T10:25:20;3.40;99.90
22666;DHT22;11499;49.486;11.104;2022-11-20T10:30:19;2.90;99.90
22666;DHT22;11499;49.486;11.104;2022-11-20T10:32:49;2.80;99.90
22666;DHT22;11499;49.486;11.104;2022-11-20T10:35:42;2.80;99.90
22666;DHT22;11499;49.486;11.104;2022-11-20T10:42:51;3.00;99.90
22666;DHT22;11499;49.486;11.104;2022-11-20T10:50:25;3.70;99.90
22666;DHT22;11499;49.486;11.104;2022-11-20T10:55:48;4.00;99.90
22666;DHT22;11499;49.486;11.104;2022-11-20T11:00:47;4.10;99.90
22666;DHT22;11499;49.486;11.104;2022-11-20T11:03:28;4.30;99.90
22666;DHT22;11499;49.486;11.104;2022-11-20T11:08:17;4.60;99.90
22666;DHT22;11499;49.486;11.104;2022-11-20T11:10:56;5.00;99.90
22666;DHT22;11499;49.486;11.104;2022-11-20T11:13:26;4.50;99.90
22666;DHT22;11499;49.486;11.104;2022-11-20T11:15:52;4.20;99.90
22666;DHT22;11499;49.486;11.104;2022-11-20T11:18:31;3.80;99.90
22666;DHT22;11499;49.486;11.104;2022-11-20T11:21:03;3.50;99.90
22666;DHT22;11499;49.486;11.104;2022-11-20T11:23:32;3.30;99.90
22666;DHT22;11499;49.486;11.104;2022-11-20T11:26:01;3.30;99.90
22666;DHT22;11499;49.486;11.104;2022-11-20T11:28:27;2.90;99.90
22666;DHT22;11499;49.486;11.104;2022-11-20T11:30:54;2.70;99.90
22666;DHT22;11499;49.486;11.104;2022-11-20T11:35:56;2.60;99.90
22666;DHT22;11499;49.486;11.104;2022-11-20T11:40:56;3.10;99.90
22666;DHT22;11499;49.486;11.104;2022-11-20T11:43:25;3.30;99.90
22666;DHT22;11499;49.486;11.104;2022-11-20T11:46:32;3.20;99.90
22666;DHT22;11499;49.486;11.104;2022-11-20T11:51:36;3.60;99.90
22666;DHT22;11499;49.486;11.104;2022-11-20T11:54:10;3.60;99.90
22666;DHT22;11499;49.486;11.104;2022-11-20T11:56:39;3.50;99.90
22666;DHT22;11499;49.486;11.104;2022-11-20T11:59:09;3.40;99.90
22666;DHT22;11499;49.486;11.104;2022-11-20T12:03:40;3.60;99.90
22666;DHT22;11499;49.486;11.104;2022-11-20T12:06:15;4.10;99.90
22666;DHT22;11499;49.486;11.104;2022-11-20T12:11:18;3.90;99.90
22666;DHT22;11499;49.486;11.104;2022-11-20T12:13:58;3.80;99.90
22666;DHT22;11499;49.486;11.104;2022-11-20T12:16:27;4.00;99.90
22666;DHT22;11499;49.486;11.104;2022-11-20T12:18:53;4.10;99.90
22666;DHT22;11499;49.486;11.104;2022-11-20T12:21:31;3.90;99.90
22666;DHT22;11499;49.486;11.104;2022-11-20T12:24:18;3.80;99.90
22666;DHT22;11499;49.486;11.104;2022-11-20T12:36:02;4.40;99.90
22666;DHT22;11499;49.486;11.104;2022-11-20T12:38:36;4.70;99.90
22666;DHT22;11499;49.486;11.104;2022-11-20T12:44:45;5.10;99.90
22666;DHT22;11499;49.486;11.104;2022-11-20T12:50:29;5.40;99.90
22666;DHT22;11499;49.486;11.104;2022-11-20T12:55:49;5.30;99.90
22666;DHT22;11499;49.486;11.104;2022-11-20T12:58:36;5.00;99.90
22666;DHT22;11499;49.486;11.104;2022-11-20T13:06:54;4.70;99.90
22666;DHT22;11499;49.486;11.104;2022-11-20T13:09:20;4.50;99.90
22666;DHT22;11499;49.486;11.104;2022-11-20T13:12:13;4.50;99.90
22666;DHT22;11499;49.486;11.104;2022-11-20T13:17:47;4.40;99.90
22666;DHT22;11499;49.486;11.104;2022-11-20T13:25:24;4.50;99.90
22666;DHT22;11499;49.486;11.104;2022-11-20T13:27:50;4.50;99.90
22666;DHT22;11499;49.486;11.104;2022-11-20T13:30:21;4.40;99.90
22666;DHT22;11499;49.486;11.104;2022-11-20T13:33:07;4.20;99.90
22666;DHT22;11499;49.486;11.104;2022-11-20T13:38:11;4.10;99.90
22666;DHT22;11499;49.486;11.104;2022-11-20T13:40:39;4.10;99.90
22666;DHT22;11499;49.486;11.104;2022-11-20T13:43:42;4.10;99.90
22666;DHT22;11499;49.486;11.104;2022-11-20T13:46:10;4.30;99.90
22666;DHT22;11499;49.486;11.104;2022-11-20T13:49:59;4.30;99.90
22666;DHT22;11499;49.486;11.104;2022-11-20T13:55:33;4.00;99.90
22666;DHT22;11499;49.486;11.104;2022-11-20T13:58:21;3.80;99.90
22666;DHT22;11499;49.486;11.104;2022-11-20T14:01:00;3.80;99.90
22666;DHT22;11499;49.486;11.104;2022-11-20T14:03:29;3.80;99.90
22666;DHT22;11499;49.486;11.104;2022-11-20T14:06:03;3.70;99.90
22666;DHT22;11499;49.486;11.104;2022-11-20T14:08:47;3.70;99.90
22666;DHT22;11499;49.486;11.104;2022-11-20T14:11:28;3.60;99.90
22666;DHT22;11499;49.486;11.104;2022-11-20T14:17:17;3.70;99.90
22666;DHT22;11499;49.486;11.104;2022-11-20T14:19:44;3.60;99.90
22666;DHT22;11499;49.486;11.104;2022-11-20T14:24:44;3.80;99.90
22666;DHT22;11499;49.486;11.104;2022-11-20T14:27:20;3.70;99.90
22666;DHT22;11499;49.486;11.104;2022-11-20T14:29:47;3.80;99.90
22666;DHT22;11499;49.486;11.104;2022-11-20T14:32:16;3.90;99.90
22666;DHT22;11499;49.486;11.104;2022-11-20T14:34:45;3.90;99.90
22666;DHT22;11499;49.486;11.104;2022-11-20T14:37:13;3.80;99.90
22666;DHT22;11499;49.486;11.104;2022-11-20T14:39:54;3.90;99.90
22666;DHT22;11499;49.486;11.104;2022-11-20T14:44:33;3.90;99.90
22666;DHT22;11499;49.486;11.104;2022-11-20T14:47:01;3.90;99.90
22666;DHT22;11499;49.486;11.104;2022-11-20T14:49:30;3.90;99.90
22666;DHT22;11499;49.486;11.104;2022-11-20T14:52:14;3.90;99.90
22666;DHT22;11499;49.486;11.104;2022-11-20T14:54:45;3.90;99.90
22666;DHT22;11499;49.486;11.104;2022-11-20T14:59:49;3.90;99.90
22666;DHT22;11499;49.486;11.104;2022-11-20T15:02:18;4.00;99.90
22666;DHT22;11499;49.486;11.104;2022-11-20T15:04:48;4.00;99.90
22666;DHT22;11499;49.486;11.104;2022-11-20T15:07:24;3.90;99.90
22666;DHT22;11499;49.486;11.104;2022-11-20T15:12:24;3.90;99.90
22666;DHT22;11499;49.486;11.104;2022-11-20T15:14:50;3.80;99.90
22666;DHT22;11499;49.486;11.104;2022-11-20T15:17:15;3.80;99.90
22666;DHT22;11499;49.486;11.104;2022-11-20T15:19:41;3.80;99.90
22666;DHT22;11499;49.486;11.104;2022-11-20T15:22:11;3.80;99.90
22666;DHT22;11499;49.486;11.104;2022-11-20T15:24:38;3.90;99.90
22666;DHT22;11499;49.486;11.104;2022-11-20T15:27:04;4.00;99.90
22666;DHT22;11499;49.486;11.104;2022-11-20T15:29:29;4.00;99.90
22666;DHT22;11499;49.486;11.104;2022-11-20T15:31:55;4.10;99.90
22666;DHT22;11499;49.486;11.104;2022-11-20T15:34:21;4.10;99.90
22666;DHT22;11499;49.486;11.104;2022-11-20T15:39:47;4.10;99.90
22666;DHT22;11499;49.486;11.104;2022-11-20T15:42:12;4.10;99.90
22666;DHT22;11499;49.486;11.104;2022-11-20T15:44:38;4.10;99.90
22666;DHT22;11499;49.486;11.104;2022-11-20T15:47:03;4.10;99.90
22666;DHT22;11499;49.486;11.104;2022-11-20T15:49:30;4.10;99.90
22666;DHT22;11499;49.486;11.104;2022-11-20T15:51:55;4.10;99.90
22666;DHT22;11499;49.486;11.104;2022-11-20T15:54:22;4.10;99.90
22666;DHT22;11499;49.486;11.104;2022-11-20T15:56:48;4.00;99.90
22666;DHT22;11499;49.486;11.104;2022-11-20T15:59:15;4.10;99.90
22666;DHT22;11499;49.486;11.104;2022-11-20T16:01:41;4.10;99.90
22666;DHT22;11499;49.486;11.104;2022-11-20T16:04:14;4.10;99.90
22666;DHT22;11499;49.486;11.104;2022-11-20T16:09:30;4.20;99.90
22666;DHT22;11499;49.486;11.104;2022-11-20T16:11:56;4.20;99.90
22666;DHT22;11499;49.486;11.104;2022-11-20T16:14:24;4.20;99.90
22666;DHT22;11499;49.486;11.104;2022-11-20T16:17:08;4.20;99.90
22666;DHT22;11499;49.486;11.104;2022-11-20T16:19:34;4.20;99.90
22666;DHT22;11499;49.486;11.104;2022-11-20T16:21:59;4.20;99.90
22666;DHT22;11499;49.486;11.104;2022-11-20T16:24:27;4.10;99.90
22666;DHT22;11499;49.486;11.104;2022-11-20T16:26:54;3.90;99.90
22666;DHT22;11499;49.486;11.104;2022-11-20T16:29:19;3.80;99.90
22666;DHT22;11499;49.486;11.104;2022-11-20T16:31:45;3.80;99.90
22666;DHT22;11499;49.486;11.104;2022-11-20T16:37:17;3.80;99.90
22666;DHT22;11499;49.486;11.104;2022-11-20T16:39:42;3.80;99.90
22666;DHT22;11499;49.486;11.104;2022-11-20T16:42:08;3.80;99.90
22666;DHT22;11499;49.486;11.104;2022-11-20T16:44:33;3.80;99.90
22666;DHT22;11499;49.486;11.104;2022-11-20T16:46:59;3.80;99.90
22666;DHT22;11499;49.486;11.104;2022-11-20T16:49:25;3.90;99.90
22666;DHT22;11499;49.486;11.104;2022-11-20T16:51:50;3.80;99.90
22666;DHT22;11499;49.486;11.104;2022-11-20T16:54:16;3.70;99.90
22666;DHT22;11499;49.486;11.104;2022-11-20T16:56:41;3.70;99.90
22666;DHT22;11499;49.486;11.104;2022-11-20T16:59:07;3.70;99.90
22666;DHT22;11499;49.486;11.104;2022-11-20T17:04:13;3.60;99.90
22666;DHT22;11499;49.486;11.104;2022-11-20T17:06:41;3.70;99.90
22666;DHT22;11499;49.486;11.104;2022-11-20T17:09:08;3.80;99.90
22666;DHT22;11499;49.486;11.104;2022-11-20T17:11:34;3.80;99.90
22666;DHT22;11499;49.486;11.104;2022-11-20T17:14:00;3.80;99.90
22666;DHT22;11499;49.486;11.104;2022-11-20T17:16:29;3.90;99.90
22666;DHT22;11499;49.486;11.104;2022-11-20T17:18:56;3.90;99.90
22666;DHT22;11499;49.486;11.104;2022-11-20T17:21:22;3.90;99.90
22666;DHT22;11499;49.486;11.104;2022-11-20T17:23:48;3.90;99.90
22666;DHT22;11499;49.486;11.104;2022-11-20T17:26:16;3.90;99.90
22666;DHT22;11499;49.486;11.104;2022-11-20T17:30:25;3.90;99.90
22666;DHT22;11499;49.486;11.104;2022-11-20T17:32:51;3.70;99.90
22666;DHT22;11499;49.486;11.104;2022-11-20T17:35:17;3.60;99.90
22666;DHT22;11499;49.486;11.104;2022-11-20T17:37:42;3.50;99.90
22666;DHT22;11499;49.486;11.104;2022-11-20T17:40:08;3.50;99.90
22666;DHT22;11499;49.486;11.104;2022-11-20T17:42:33;3.40;99.90
22666;DHT22;11499;49.486;11.104;2022-11-20T17:45:01;3.30;99.90
22666;DHT22;11499;49.486;11.104;2022-11-20T17:47:27;3.30;99.90
22666;DHT22;11499;49.486;11.104;2022-11-20T17:49:52;3.20;99.90
22666;DHT22;11499;49.486;11.104;2022-11-20T17:52:19;3.20;99.90
22666;DHT22;11499;49.486;11.104;2022-11-20T17:57:41;3.10;99.90
22666;DHT22;11499;49.486;11.104;2022-11-20T18:00:21;3.00;99.90
22666;DHT22;11499;49.486;11.104;2022-11-20T18:02:47;3.00;99.90
22666;DHT22;11499;49.486;11.104;2022-11-20T18:05:14;3.00;99.90
22666;DHT22;11499;49.486;11.104;2022-11-20T18:07:40;3.00;99.90
22666;DHT22;11499;49.486;11.104;2022-11-20T18:10:06;3.00;99.90
22666;DHT22;11499;49.486;11.104;2022-11-20T18:12:32;3.00;99.90
22666;DHT22;11499;49.486;11.104;2022-11-20T18:14:57;3.00;99.90
22666;DHT22;11499;49.486;11.104;2022-11-20T18:17:23;3.00;99.90
22666;DHT22;11499;49.486;11.104;2022-11-20T18:19:49;2.90;99.90
22666;DHT22;11499;49.486;11.104;2022-11-20T18:24:54;2.90;99.90
22666;DHT22;11499;49.486;11.104;2022-11-20T18:27:20;2.90;99.90
22666;DHT22;11499;49.486;11.104;2022-11-20T18:29:46;2.90;99.90
22666;DHT22;11499;49.486;11.104;2022-11-20T18:32:13;2.80;99.90
22666;DHT22;11499;49.486;11.104;2022-11-20T18:34:38;2.70;99.90
22666;DHT22;11499;49.486;11.104;2022-11-20T18:37:04;2.70;99.90
22666;DHT22;11499;49.486;11.104;2022-11-20T18:39:30;2.60;99.90